createdAt,value
2022-09-04T00:02:21.702Z,101607.41
2022-09-04T00:05:03.738Z,101608.59
2022-09-04T00:07:37.353Z,101592.31
2022-09-04T00:10:29.872Z,101603.81
2022-09-04T00:13:12.320Z,101612.88
2022-09-04T00:15:43.676Z,101617.03
2022-09-04T00:18:23.129Z,101614.34
2022-09-04T00:21:27.518Z,101617.03
2022-09-04T00:23:59.664Z,101598.03
2022-09-04T00:26:44.379Z,101613.25
2022-09-04T00:29:40.607Z,101580.28
2022-09-04T00:32:25.977Z,101612.16
2022-09-04T00:34:58.556Z,101620.56
2022-09-04T00:37:32.744Z,101607.88
2022-09-04T00:40:06.025Z,101613.41
2022-09-04T00:43:19.056Z,101624.72
2022-09-04T00:46:19.091Z,101618.09
2022-09-04T00:49:03.743Z,101616.72
2022-09-04T00:51:45.114Z,101621.41
2022-09-04T00:54:56.955Z,101608.88
2022-09-04T00:57:39.089Z,101607.19
2022-09-04T01:00:17.858Z,101617.78
2022-09-04T01:03:21.859Z,101619.47
2022-09-04T01:06:25.080Z,101621.47
2022-09-04T01:09:01.222Z,101592.72
2022-09-04T01:11:49.629Z,101618.06
2022-09-04T01:14:26.170Z,101609.41
2022-09-04T01:17:04.889Z,101599.28
2022-09-04T01:19:58.072Z,101614.19
2022-09-04T01:22:44.260Z,101616.72
2022-09-04T01:25:37.843Z,101622.94
2022-09-04T01:28:14.692Z,101613.22
2022-09-04T01:31:06.190Z,101625.06
2022-09-04T01:33:51.165Z,101587.72
2022-09-04T01:36:30.849Z,101613.38
2022-09-04T01:38:59.966Z,101624.63
2022-09-04T01:41:36.335Z,101623.09
2022-09-04T01:44:07.134Z,101631.00
2022-09-04T01:47:03.481Z,101629.00
2022-09-04T01:49:37.682Z,101616.88
2022-09-04T01:52:22.976Z,101624.78
2022-09-04T01:54:58.759Z,101629.31
2022-09-04T01:57:30.892Z,101622.94
2022-09-04T02:00:19.946Z,101622.09
2022-09-04T02:03:00.270Z,101624.78
2022-09-04T02:05:30.250Z,101622.31
2022-09-04T02:08:33.939Z,101631.00
2022-09-04T02:11:12.624Z,101618.75
2022-09-04T02:13:53.689Z,101634.28
2022-09-04T02:16:43.929Z,101635.28
2022-09-04T02:19:37.697Z,101631.88
2022-09-04T02:22:15.197Z,101634.06
2022-09-04T02:25:06.215Z,101639.44
2022-09-04T02:27:53.996Z,101643.25
2022-09-04T02:30:21.179Z,101636.34
2022-09-04T02:33:01.068Z,101639.88
2022-09-04T02:35:37.539Z,101631.25
2022-09-04T02:38:15.025Z,101630.84
2022-09-04T02:41:03.998Z,101642.84
2022-09-04T02:44:16.945Z,101632.03
2022-09-04T02:47:13.621Z,101634.38
2022-09-04T02:50:06.340Z,101652.19
2022-09-04T02:52:59.582Z,101632.75
2022-09-04T02:56:00.107Z,101650.66
2022-09-04T02:58:47.647Z,101651.91
2022-09-04T03:01:28.912Z,101642.44
2022-09-04T03:04:18.148Z,101640.03
2022-09-04T03:07:07.017Z,101664.44
2022-09-04T03:09:48.230Z,101661.22
2022-09-04T03:12:37.746Z,101661.25
2022-09-04T03:15:27.681Z,101669.88
2022-09-04T03:18:21.120Z,101668.47
2022-09-04T03:20:56.350Z,101657.06
2022-09-04T03:23:27.162Z,101665.97
2022-09-04T03:25:57.093Z,101673.31
2022-09-04T03:28:43.737Z,101671.03
2022-09-04T03:31:40.588Z,101677.38
2022-09-04T03:34:56.561Z,101674.88
2022-09-04T03:37:30.843Z,101674.88
2022-09-04T03:40:32.309Z,101673.91
2022-09-04T03:43:07.891Z,101674.47
2022-09-04T03:45:53.464Z,101682.84
2022-09-04T03:48:34.508Z,101682.25
2022-09-04T03:51:18.876Z,101688.06
2022-09-04T03:53:53.576Z,101691.03
2022-09-04T03:56:52.255Z,101692.84
2022-09-04T03:59:49.804Z,101693.16
2022-09-04T04:02:34.519Z,101676.50
2022-09-04T04:05:09.700Z,101696.28
2022-09-04T04:08:09.825Z,101696.72
2022-09-04T04:10:52.711Z,101697.25
2022-09-04T04:13:28.591Z,101702.22
2022-09-04T04:16:10.963Z,101673.13
2022-09-04T04:19:06.926Z,101720.69
2022-09-04T04:22:10.393Z,101720.13
2022-09-04T04:24:39.465Z,101716.34
2022-09-04T04:27:25.558Z,101730.72
2022-09-04T04:30:14.104Z,101731.25
2022-09-04T04:32:59.170Z,101733.09
2022-09-04T04:35:28.590Z,101731.69
2022-09-04T04:38:12.718Z,101711.19
2022-09-04T04:41:16.941Z,101733.53
2022-09-04T04:44:11.186Z,101735.50
2022-09-04T04:46:54.587Z,101739.31
2022-09-04T04:49:39.435Z,101733.22
2022-09-04T04:52:38.971Z,101728.72
2022-09-04T04:55:24.638Z,101728.13
2022-09-04T04:58:07.762Z,101737.16
2022-09-04T05:00:40.698Z,101749.72
2022-09-04T05:03:46.115Z,101740.69
2022-09-04T05:06:15.232Z,101742.66
2022-09-04T05:09:09.313Z,101753.25
2022-09-04T05:11:53.738Z,101746.91
2022-09-04T05:14:33.691Z,101755.06
2022-09-04T05:17:14.847Z,101751.41
2022-09-04T05:19:52.408Z,101762.84
2022-09-04T05:22:38.763Z,101762.19
2022-09-04T05:25:21.680Z,101760.03
2022-09-04T05:28:10.089Z,101756.25
2022-09-04T05:31:13.992Z,101773.34
2022-09-04T05:33:59.306Z,101770.94
2022-09-04T05:36:36.783Z,101797.50
2022-09-04T05:39:21.858Z,101780.69
2022-09-04T05:42:15.576Z,101781.28
2022-09-04T05:45:19.694Z,101781.13
2022-09-04T05:48:08.117Z,101787.50
2022-09-04T05:50:53.976Z,101790.03
2022-09-04T05:53:32.628Z,101796.81
2022-09-04T05:56:11.191Z,101788.78
2022-09-04T05:59:01.341Z,101789.22
2022-09-04T06:01:39.179Z,101794.41
2022-09-04T06:04:24.910Z,101785.03
2022-09-04T06:06:58.875Z,101789.94
2022-09-04T06:09:43.578Z,101798.66
2022-09-04T06:12:50.757Z,101780.84
2022-09-04T06:15:26.442Z,101794.56
2022-09-04T06:18:14.746Z,101791.44
2022-09-04T06:20:59.256Z,101803.50
2022-09-04T06:23:49.938Z,101815.63
2022-09-04T06:26:40.363Z,101811.22
2022-09-04T06:29:25.214Z,101801.63
2022-09-04T06:32:04.384Z,101810.19
2022-09-04T06:34:55.983Z,101810.63
2022-09-04T06:37:31.537Z,101816.00
2022-09-04T06:40:19.253Z,101805.34
2022-09-04T06:43:05.652Z,101800.06
2022-09-04T06:45:44.215Z,101810.31
2022-09-04T06:48:38.299Z,101791.84
2022-09-04T06:51:17.017Z,101809.03
2022-09-04T06:53:50.431Z,101811.13
2022-09-04T06:56:17.313Z,101793.13
2022-09-04T06:59:00.586Z,101815.94
2022-09-04T07:01:40.497Z,101813.41
2022-09-04T07:04:25.632Z,101812.22
2022-09-04T07:07:10.126Z,101815.47
2022-09-04T07:09:45.464Z,101812.44
2022-09-04T07:12:29.547Z,101813.78
2022-09-04T07:15:21.251Z,101825.94
2022-09-04T07:18:23.217Z,101836.06
2022-09-04T07:21:06.287Z,101814.25
2022-09-04T07:23:47.798Z,101830.91
2022-09-04T07:26:20.023Z,101828.72
2022-09-04T07:29:11.454Z,101836.66
2022-09-04T07:31:59.499Z,101838.63
2022-09-04T07:34:37.940Z,101845.72
2022-09-04T07:37:10.394Z,101847.53
2022-09-04T07:39:49.102Z,101859.19
2022-09-04T07:42:43.798Z,101840.56
2022-09-04T07:45:20.073Z,101855.41
2022-09-04T07:48:08.066Z,101862.31
2022-09-04T07:50:40.092Z,101858.53
2022-09-04T07:53:24.994Z,101858.28
2022-09-04T07:56:06.608Z,101854.53
2022-09-04T07:58:44.996Z,101871.38
2022-09-04T08:01:52.716Z,101863.47
2022-09-04T08:04:44.053Z,101865.16
2022-09-04T08:07:39.855Z,101866.06
2022-09-04T08:10:31.572Z,101869.53
2022-09-04T08:13:14.123Z,101875.72
2022-09-04T08:15:43.812Z,101877.50
2022-09-04T08:19:01.566Z,101885.13
2022-09-04T08:21:33.629Z,101885.97
2022-09-04T08:24:06.454Z,101883.66
2022-09-04T08:27:10.484Z,101887.78
2022-09-04T08:29:58.713Z,101892.50
2022-09-04T08:32:53.316Z,101880.69
2022-09-04T08:35:41.151Z,101898.94
2022-09-04T08:38:16.423Z,101891.16
2022-09-04T08:41:06.892Z,101887.16
2022-09-04T08:43:55.462Z,101889.38
2022-09-04T08:46:28.746Z,101889.63
2022-09-04T08:49:10.492Z,101896.75
2022-09-04T08:51:58.622Z,101889.34
2022-09-04T08:54:31.244Z,101892.78
2022-09-04T08:57:36.006Z,101899.84
2022-09-04T09:00:11.503Z,101887.63
2022-09-04T09:03:15.533Z,101890.47
2022-09-04T09:06:19.568Z,101884.94
2022-09-04T09:09:19.207Z,101887.22
2022-09-04T09:12:16.945Z,101898.06
2022-09-04T09:15:11.111Z,101892.53
2022-09-04T09:17:57.854Z,101895.69
2022-09-04T09:21:02.264Z,101887.91
2022-09-04T09:23:32.091Z,101893.88
2022-09-04T09:26:21.182Z,101888.25
2022-09-04T09:28:50.895Z,101893.47
2022-09-04T09:31:35.566Z,101918.66
2022-09-04T09:34:41.863Z,101773.97
2022-09-04T09:37:29.815Z,101895.41
2022-09-04T09:40:21.264Z,101899.59
2022-09-04T09:43:13.040Z,101893.22
2022-09-04T09:46:04.741Z,101895.09
2022-09-04T09:48:50.514Z,101891.16
2022-09-04T09:51:51.689Z,101892.84
2022-09-04T09:54:30.539Z,101815.91
2022-09-04T09:57:06.691Z,101908.00
2022-09-04T10:00:13.048Z,101850.97
2022-09-04T10:02:42.910Z,101883.84
2022-09-04T10:05:40.159Z,101896.69
2022-09-04T10:08:40.549Z,101885.50
2022-09-04T10:11:29.163Z,101890.16
2022-09-04T10:14:29.857Z,101889.53
2022-09-04T10:17:15.046Z,101897.69
2022-09-04T10:20:10.537Z,101873.19
2022-09-04T10:22:46.295Z,101894.69
2022-09-04T10:25:31.187Z,101898.13
2022-09-04T10:28:19.323Z,101890.88
2022-09-04T10:31:07.894Z,101886.31
2022-09-04T10:33:49.817Z,101896.94
2022-09-04T10:36:35.965Z,101899.81
2022-09-04T10:39:55.633Z,101893.63
2022-09-04T10:42:38.325Z,101771.09
2022-09-04T10:45:27.567Z,101705.34
2022-09-04T10:48:08.580Z,101755.91
2022-09-04T10:50:49.062Z,101894.22
2022-09-04T10:53:51.715Z,101861.34
2022-09-04T10:56:27.245Z,101886.56
2022-09-04T10:59:13.689Z,101882.31
2022-09-04T11:02:15.798Z,101899.94
2022-09-04T11:05:20.575Z,101854.34
2022-09-04T11:08:25.597Z,101884.69
2022-09-04T11:11:25.442Z,101880.59
2022-09-04T11:14:13.153Z,101875.59
2022-09-04T11:16:58.189Z,101868.75
2022-09-04T11:19:32.435Z,101866.34
2022-09-04T11:22:02.374Z,101876.69
2022-09-04T11:24:54.705Z,101880.00
2022-09-04T11:27:45.805Z,101866.31
2022-09-04T11:30:31.849Z,101817.16
2022-09-04T11:33:22.987Z,101866.81
2022-09-04T11:36:03.638Z,101858.84
2022-09-04T11:39:08.015Z,101859.13
2022-09-04T11:42:13.992Z,101855.91
2022-09-04T11:44:49.954Z,101859.59
2022-09-04T11:47:55.745Z,101824.44
2022-09-04T11:50:43.060Z,101851.78
2022-09-04T11:53:20.002Z,101864.06
2022-09-04T11:56:21.994Z,101824.75
2022-09-04T11:58:52.283Z,101862.72
2022-09-04T12:01:34.456Z,101861.97
2022-09-04T12:04:32.316Z,101861.47
2022-09-04T12:07:18.090Z,101863.16
2022-09-04T12:10:09.340Z,101872.38
2022-09-04T12:13:15.243Z,101824.19
2022-09-04T12:15:58.568Z,101864.69
2022-09-04T12:18:55.160Z,101863.13
2022-09-04T12:21:53.887Z,101817.41
2022-09-04T12:24:56.935Z,101887.16
2022-09-04T12:27:45.026Z,101859.47
2022-09-04T12:30:27.688Z,101777.50
2022-09-04T12:33:08.538Z,101857.53
2022-09-04T12:35:43.627Z,101849.00
2022-09-04T12:38:39.464Z,101853.69
2022-09-04T12:41:18.537Z,101783.22
2022-09-04T12:44:17.887Z,101592.81
2022-09-04T12:47:03.131Z,101870.25
2022-09-04T12:50:00.127Z,101867.75
2022-09-04T12:52:58.561Z,101852.72
2022-09-04T12:56:10.009Z,101888.00
2022-09-04T12:59:01.257Z,101849.44
2022-09-04T13:01:55.635Z,101846.91
2022-09-04T13:04:27.627Z,101858.97
2022-09-04T13:07:15.643Z,101852.78
2022-09-04T13:10:07.177Z,101853.84
2022-09-04T13:13:10.538Z,101636.88
2022-09-04T13:16:01.670Z,101849.03
2022-09-04T13:18:48.036Z,101858.91
2022-09-04T13:21:38.802Z,101749.06
2022-09-04T13:24:14.517Z,101856.41
2022-09-04T13:27:08.279Z,101850.00
2022-09-04T13:30:22.165Z,101726.22
2022-09-04T13:33:14.339Z,101852.97
2022-09-04T13:35:58.558Z,101860.38
2022-09-04T13:38:58.068Z,101677.41
2022-09-04T13:41:25.076Z,101855.63
2022-09-04T13:44:40.920Z,101860.19
2022-09-04T13:47:32.414Z,101764.16
2022-09-04T13:50:14.984Z,101790.31
2022-09-04T13:52:50.721Z,101738.53
2022-09-04T13:55:30.484Z,101792.88
2022-09-04T13:58:11.053Z,101860.22
2022-09-04T14:00:46.256Z,101811.53
2022-09-04T14:03:38.931Z,101679.97
2022-09-04T14:06:10.331Z,101768.94
2022-09-04T14:08:40.062Z,101758.63
2022-09-04T14:11:56.882Z,101691.38
2022-09-04T14:14:41.749Z,101866.25
2022-09-04T14:17:09.721Z,101734.22
2022-09-04T14:20:03.316Z,101864.25
2022-09-04T14:23:14.109Z,101863.97
2022-09-04T14:25:56.682Z,101735.47
2022-09-04T14:28:38.004Z,101681.19
2022-09-04T14:31:14.407Z,101868.50
2022-09-04T14:33:45.024Z,101868.22
2022-09-04T14:36:40.967Z,101671.81
2022-09-04T14:39:20.630Z,101866.91
2022-09-04T14:42:29.709Z,101860.31
2022-09-04T14:45:13.762Z,101852.41
2022-09-04T14:47:55.112Z,101826.28
2022-09-04T14:50:30.810Z,101784.44
2022-09-04T14:53:04.853Z,101820.13
2022-09-04T14:55:34.866Z,101865.97
2022-09-04T14:58:27.933Z,101865.09
2022-09-04T15:01:09.585Z,101730.41
2022-09-04T15:04:04.449Z,101864.19
2022-09-04T15:07:09.752Z,101872.47
2022-09-04T15:09:38.032Z,101863.59
2022-09-04T15:12:25.237Z,101867.16
2022-09-04T15:15:11.285Z,101863.19
2022-09-04T15:17:46.867Z,101797.69
2022-09-04T15:20:30.782Z,101856.81
2022-09-04T15:23:05.036Z,101902.53
2022-09-04T15:25:59.818Z,101742.56
2022-09-04T15:28:55.405Z,101807.75
2022-09-04T15:31:32.048Z,101843.25
2022-09-04T15:34:09.834Z,101656.31
2022-09-04T15:36:39.334Z,101751.84
2022-09-04T15:39:18.166Z,101865.00
2022-09-04T15:41:50.605Z,101782.25
2022-09-04T15:44:35.651Z,101909.88
2022-09-04T15:47:16.421Z,101870.97
2022-09-04T15:49:50.937Z,101779.38
2022-09-04T15:52:30.033Z,101793.13
2022-09-04T15:55:31.502Z,101872.38
2022-09-04T15:58:15.848Z,101648.75
2022-09-04T16:01:10.193Z,101863.88
2022-09-04T16:03:47.485Z,101643.50
2022-09-04T16:06:21.018Z,101751.63
2022-09-04T16:09:33.616Z,101755.72
2022-09-04T16:12:44.045Z,101641.94
2022-09-04T16:20:49.246Z,101760.91
2022-09-04T16:24:06.515Z,101732.88
2022-09-04T16:27:12.003Z,101734.81
2022-09-04T16:33:34.029Z,101808.06
2022-09-04T16:36:14.002Z,101694.09
2022-09-04T16:38:57.522Z,101882.91
2022-09-04T16:41:37.742Z,101843.47
2022-09-04T16:44:32.770Z,101878.97
2022-09-04T16:47:16.396Z,101880.03
2022-09-04T16:50:19.829Z,101879.34
2022-09-04T16:53:12.523Z,101676.25
2022-09-04T16:56:07.506Z,101814.56
2022-09-04T16:58:55.028Z,101885.31
2022-09-04T17:01:39.470Z,101755.63
2022-09-04T17:04:52.486Z,101883.22
2022-09-04T17:07:36.107Z,101891.09
2022-09-04T17:10:09.270Z,101888.03
2022-09-04T17:13:03.142Z,101892.75
2022-09-04T17:15:53.939Z,101788.59
2022-09-04T17:18:24.706Z,101713.19
2022-09-04T17:24:58.095Z,101889.59
2022-09-04T17:29:01.631Z,101923.81
2022-09-04T17:29:11.751Z,101832.31
2022-09-04T17:30:32.593Z,101896.22
2022-09-04T17:38:24.378Z,101765.94
2022-09-04T17:40:36.454Z,101899.59
2022-09-04T17:40:53.289Z,101862.13
2022-09-04T17:43:21.413Z,101807.19
2022-09-04T17:45:55.404Z,101918.06
2022-09-04T17:48:30.243Z,101923.13
2022-09-04T17:51:04.889Z,101856.53
2022-09-04T17:53:36.232Z,101874.78
2022-09-04T17:56:13.946Z,101743.50
2022-09-04T17:58:43.881Z,101916.13
2022-09-04T18:01:23.828Z,101884.09
2022-09-04T18:04:22.652Z,101948.53
2022-09-04T18:07:33.558Z,101869.63
2022-09-04T18:10:19.438Z,101944.63
2022-09-04T18:12:54.976Z,101967.38
2022-09-04T18:15:33.634Z,101828.97
2022-09-04T18:18:25.110Z,101850.38
2022-09-04T18:21:14.017Z,101883.47
2022-09-04T18:23:51.323Z,101768.16
2022-09-04T18:26:22.790Z,101764.53
2022-09-04T18:29:55.063Z,101909.56
2022-09-04T18:37:10.757Z,101945.72
2022-09-04T18:37:19.447Z,101954.25
2022-09-04T18:38:44.547Z,101931.75
2022-09-04T18:49:35.873Z,101939.41
2022-09-04T18:50:24.612Z,101886.09
2022-09-04T18:50:32.529Z,101834.72
2022-09-04T18:50:51.001Z,101964.25
2022-09-04T18:53:20.324Z,101997.75
2022-09-04T18:56:20.813Z,101976.63
2022-09-04T18:58:57.514Z,101979.97
2022-09-04T19:01:38.790Z,101831.59
2022-09-04T19:04:29.562Z,101975.34
2022-09-04T19:07:07.209Z,101971.72
2022-09-04T19:09:59.123Z,101975.19
2022-09-04T19:12:47.204Z,101979.13
2022-09-04T19:15:37.541Z,101963.00
2022-09-04T19:18:26.875Z,101982.59
2022-09-04T19:21:14.769Z,101995.50
2022-09-04T19:23:44.774Z,101989.53
2022-09-04T19:26:35.690Z,101988.03
2022-09-04T19:29:20.388Z,101991.47
2022-09-04T19:32:13.819Z,101985.72
2022-09-04T19:34:48.808Z,101997.81
2022-09-04T19:42:07.476Z,101991.06
2022-09-04T19:45:54.488Z,101962.16
2022-09-04T19:46:08.898Z,101995.44
2022-09-04T19:46:28.073Z,102000.06
2022-09-04T19:53:17.506Z,101996.22
2022-09-04T19:53:30.876Z,102007.97
2022-09-04T19:55:24.866Z,101974.22
2022-09-04T19:58:08.624Z,101987.59
2022-09-04T20:00:48.094Z,102002.84
2022-09-04T20:03:28.992Z,101970.78
2022-09-04T20:06:07.752Z,101987.06
2022-09-04T20:08:52.640Z,101994.53
2022-09-04T20:11:34.601Z,101990.47
2022-09-04T20:14:14.306Z,102007.09
2022-09-04T20:17:09.006Z,101999.53
2022-09-04T20:19:41.521Z,101977.25
2022-09-04T20:22:46.204Z,102008.88
2022-09-04T20:25:18.380Z,102008.06
2022-09-04T20:27:54.125Z,102016.88
2022-09-04T20:30:24.552Z,101954.75
2022-09-04T20:33:02.864Z,102013.53
2022-09-04T20:35:38.082Z,102022.03
2022-09-04T20:38:22.969Z,102021.53
2022-09-04T20:40:58.135Z,102022.22
2022-09-04T20:43:47.565Z,102033.41
2022-09-04T20:52:40.475Z,102018.00
2022-09-04T20:52:59.377Z,102025.13
2022-09-04T20:53:07.971Z,102019.75
2022-09-04T20:55:37.514Z,102035.13
2022-09-04T21:03:09.791Z,102035.50
2022-09-04T21:03:12.774Z,102038.38
2022-09-04T21:04:42.246Z,102043.94
2022-09-04T21:07:47.169Z,102047.00
2022-09-04T21:10:29.378Z,102054.31
2022-09-04T21:13:14.510Z,102027.06
2022-09-04T21:15:47.079Z,102054.81
2022-09-04T21:18:34.373Z,102055.00
2022-09-04T21:21:01.050Z,102061.06
2022-09-04T21:24:03.272Z,102064.63
2022-09-04T21:26:52.121Z,102071.41
2022-09-04T21:29:37.323Z,102063.63
2022-09-04T21:32:48.666Z,102068.88
2022-09-04T21:35:29.244Z,102075.78
2022-09-04T21:38:08.828Z,102081.19
2022-09-04T21:40:51.268Z,102080.19
2022-09-04T21:43:42.569Z,102078.66
2022-09-04T21:46:28.957Z,102069.69
2022-09-04T21:49:08.168Z,102083.06
2022-09-04T21:52:09.110Z,102086.59
2022-09-04T21:57:57.707Z,102094.72
2022-09-04T22:02:38.665Z,102082.38
2022-09-04T22:02:42.823Z,102089.66
2022-09-04T22:04:10.911Z,102085.94
2022-09-04T22:09:09.875Z,102095.06
2022-09-04T22:13:30.993Z,102093.06
2022-09-04T22:13:41.161Z,102087.81
2022-09-04T22:16:42.073Z,102088.13
2022-09-04T22:19:16.635Z,102089.31
2022-09-04T22:21:43.435Z,102075.94
2022-09-04T22:24:36.313Z,102076.78
2022-09-04T22:27:22.746Z,102083.72
2022-09-04T22:29:53.000Z,102053.28
2022-09-04T22:32:38.189Z,102082.53
2022-09-04T22:35:41.775Z,102084.25
2022-09-04T22:38:33.243Z,102083.41
2022-09-04T22:41:11.555Z,102084.75
2022-09-04T22:43:45.368Z,102074.59
2022-09-04T22:46:30.810Z,102088.81
2022-09-04T22:49:11.989Z,102087.63
2022-09-04T22:52:10.173Z,102095.06
2022-09-04T22:54:59.610Z,102088.47
2022-09-04T22:57:45.117Z,102100.16
2022-09-04T23:00:18.841Z,102096.63
2022-09-04T23:03:21.945Z,102076.13
2022-09-04T23:12:20.746Z,102085.59
2022-09-04T23:13:50.738Z,102093.53
2022-09-04T23:13:57.623Z,102088.09
2022-09-04T23:15:48.525Z,102079.09
2022-09-04T23:23:18.729Z,102086.53
2022-09-04T23:26:34.340Z,102092.59
2022-09-04T23:26:43.383Z,102082.94
2022-09-04T23:27:36.601Z,102091.22
2022-09-04T23:30:26.568Z,102081.75
2022-09-04T23:33:03.783Z,102047.94
2022-09-04T23:36:29.675Z,102082.59
2022-09-04T23:39:08.795Z,102075.31
2022-09-04T23:41:53.346Z,102070.41
2022-09-04T23:44:47.860Z,102062.84
2022-09-04T23:47:50.411Z,102080.44
2022-09-04T23:50:28.423Z,102070.47
2022-09-04T23:53:03.672Z,102070.66
2022-09-04T23:56:05.542Z,102070.00
2022-09-04T23:59:20.893Z,102062.56
